Terminal Aerodrome Forecast
Issued by NWS

Home | Current Version | Previous Version | Text Only | Print | Product List | Glossary On
Versions: 1 2 3 4 5 6 7 8 9 10 11 12 13 14
463
FTUS42 TJSJ 251122
TAFJBQ
TAF
TJBQ 251122Z 2512/2612 11004KT P6SM SKC
     FM251400 08012KT P6SM SCT030
     FM251700 08015KT P6SM VCTS SCT025CB BKN050
      TEMPO 2519/2522 3SM TSRA BKN025CB
     FM252300 09005KT P6SM FEW030 SCT060 SCT100
      AMD NOT SKED 2602/2611=

USA.gov is the U.S. government's official web portal to all federal, state and local government web resources and services.